Time;durP1;ratioP1;P1;durP2;ratioP2;P2;SDS_P1;SDS_P2;PMS_P1;PMS_P2;Temp;Humidity;BMP_temperature;BMP_pressure;BME280_temperature;BME280_humidity;BME280_pressure;Samples;Min_cycle;Max_cycle;Signal;HPM_P1;HPM_P2
2024/03/30 00:00:36;;;;;;;;;2.00;1.00;;;;;;;;5081736;27;45455;-50
2024/03/30 00:03:01;;;;;;;;;2.67;2.00;;;;;;;;5085942;27;45424;-51
2024/03/30 00:05:26;;;;;;;;;1.00;1.00;;;;;;;;5085697;27;45403;-52
2024/03/30 00:07:51;;;;;;;;;1.67;1.67;;;;;;;;5088046;27;45541;-49
2024/03/30 00:10:18;;;;;;;;;1.00;1.00;;;;;;;;5099239;27;45400;-52
2024/03/30 00:12:43;;;;;;;;;1.00;1.00;;;;;;;;5088094;27;45397;-47
2024/03/30 00:15:09;;;;;;;;;2.33;1.00;;;;;;;;5099531;27;45625;-49
2024/03/30 00:17:34;;;;;;;;;2.67;1.00;;;;;;;;5097348;27;45466;-49
2024/03/30 00:19:59;;;;;;;;;3.00;1.00;;;;;;;;5087370;27;45343;-52
2024/03/30 00:22:24;;;;;;;;;1.00;1.00;;;;;;;;5093809;27;45292;-49
2024/03/30 00:24:50;;;;;;;;;2.00;0.00;;;;;;;;5100209;27;45165;-52
2024/03/30 00:27:15;;;;;;;;;1.00;1.00;;;;;;;;5099568;27;45274;-52
2024/03/30 00:29:44;;;;;;;;;0.00;0.00;;;;;;;;5093943;27;46143;-51
2024/03/30 00:32:09;;;;;;;;;0.67;0.67;;;;;;;;5075211;27;45435;-50
2024/03/30 00:34:35;;;;;;;;;1.00;1.00;;;;;;;;5081472;27;45665;-53
2024/03/30 00:37:03;;;;;;;;;0.67;0.67;;;;;;;;5081927;27;45350;-52
2024/03/30 00:39:28;;;;;;;;;1.00;1.00;;;;;;;;5081282;27;47864;-53
2024/03/30 00:41:53;;;;;;;;;2.00;1.00;;;;;;;;5099558;27;45802;-51
2024/03/30 00:44:18;;;;;;;;;0.00;0.00;;;;;;;;5083141;27;45418;-53
2024/03/30 00:46:44;;;;;;;;;0.00;0.00;;;;;;;;5091890;27;45392;-49
2024/03/30 00:49:09;;;;;;;;;1.00;1.00;;;;;;;;5099091;27;46628;-52
2024/03/30 00:51:34;;;;;;;;;3.00;1.00;;;;;;;;5099677;27;45286;-50
2024/03/30 00:53:59;;;;;;;;;0.33;0.00;;;;;;;;5099800;27;45280;-50
2024/03/30 00:56:29;;;;;;;;;0.00;0.00;;;;;;;;5088637;27;45448;-48
2024/03/30 00:58:54;;;;;;;;;1.00;1.00;;;;;;;;5086597;27;46159;-50
2024/03/30 01:01:21;;;;;;;;;1.00;1.00;;;;;;;;5099094;27;45468;-49
2024/03/30 01:03:46;;;;;;;;;1.00;1.00;;;;;;;;5099540;27;45248;-52
2024/03/30 01:06:11;;;;;;;;;0.00;0.00;;;;;;;;5097661;27;45459;-48
2024/03/30 01:08:36;;;;;;;;;0.00;0.00;;;;;;;;5081163;27;45397;-48
2024/03/30 01:11:01;;;;;;;;;3.33;1.00;;;;;;;;5099226;27;45398;-49
2024/03/30 01:13:27;;;;;;;;;1.00;1.00;;;;;;;;5083248;27;45287;-48
2024/03/30 01:15:53;;;;;;;;;1.00;1.00;;;;;;;;5095290;27;45440;-51
2024/03/30 01:18:18;;;;;;;;;0.00;0.00;;;;;;;;5102343;27;46277;-52
2024/03/30 01:20:44;;;;;;;;;1.00;1.00;;;;;;;;5102903;27;45381;-51
2024/03/30 01:23:09;;;;;;;;;1.00;1.00;;;;;;;;5102176;27;45216;-49
2024/03/30 01:25:34;;;;;;;;;0.00;0.00;;;;;;;;5091856;27;45434;-49
2024/03/30 01:28:00;;;;;;;;;2.00;1.00;;;;;;;;5102362;27;45982;-49
2024/03/30 01:30:25;;;;;;;;;0.00;0.00;;;;;;;;5084010;27;45242;-52
2024/03/30 01:32:50;;;;;;;;;1.00;0.00;;;;;;;;5102809;27;45678;-50
2024/03/30 01:35:16;;;;;;;;;0.00;0.00;;;;;;;;5102421;27;45271;-50
2024/03/30 01:37:41;;;;;;;;;0.00;0.00;;;;;;;;5090649;27;45610;-50
2024/03/30 01:40:06;;;;;;;;;0.00;0.00;;;;;;;;5102029;27;45287;-49
2024/03/30 01:42:32;;;;;;;;;0.00;0.00;;;;;;;;5081531;27;45241;-49
2024/03/30 01:44:57;;;;;;;;;0.00;0.00;;;;;;;;5083713;27;45609;-49
2024/03/30 01:47:24;;;;;;;;;0.00;0.00;;;;;;;;5099080;27;45441;-51
2024/03/30 01:49:50;;;;;;;;;0.00;0.00;;;;;;;;5093424;27;45316;-51
2024/03/30 01:52:19;;;;;;;;;0.33;0.00;;;;;;;;5088976;27;45486;-51
2024/03/30 01:54:44;;;;;;;;;0.00;0.00;;;;;;;;5102171;27;45571;-52
2024/03/30 01:57:09;;;;;;;;;2.00;1.00;;;;;;;;5101846;27;46305;-49
2024/03/30 01:59:35;;;;;;;;;0.00;0.00;;;;;;;;5092219;27;45230;-52
2024/03/30 02:02:01;;;;;;;;;0.00;0.00;;;;;;;;5100268;27;45304;-49
2024/03/30 02:04:26;;;;;;;;;1.00;0.00;;;;;;;;5102369;27;45229;-52
2024/03/30 02:06:52;;;;;;;;;0.00;0.00;;;;;;;;5096742;27;47006;-48
2024/03/30 02:09:17;;;;;;;;;0.00;0.00;;;;;;;;5091117;27;45408;-48
2024/03/30 02:11:42;;;;;;;;;0.00;0.00;;;;;;;;5101462;27;45594;-47
2024/03/30 02:14:08;;;;;;;;;4.00;0.00;;;;;;;;5101763;27;45347;-51
2024/03/30 02:16:35;;;;;;;;;0.00;0.00;;;;;;;;5089602;27;45474;-49
2024/03/30 02:19:00;;;;;;;;;0.33;0.00;;;;;;;;5083742;27;45480;-49
2024/03/30 02:21:25;;;;;;;;;0.33;0.00;;;;;;;;5089031;27;45320;-51
2024/03/30 02:23:50;;;;;;;;;1.00;0.00;;;;;;;;5102035;27;45640;-49
2024/03/30 02:26:15;;;;;;;;;0.00;0.00;;;;;;;;5082409;27;46030;-49
2024/03/30 02:28:42;;;;;;;;;0.00;0.00;;;;;;;;5101858;27;45328;-47
2024/03/30 02:31:07;;;;;;;;;0.00;0.00;;;;;;;;5090053;27;45465;-48
2024/03/30 02:33:33;;;;;;;;;0.00;0.00;;;;;;;;5083558;27;45412;-49
2024/03/30 02:35:58;;;;;;;;;0.33;0.33;;;;;;;;5101724;27;45509;-51
2024/03/30 02:38:23;;;;;;;;;0.00;0.00;;;;;;;;5101299;27;45346;-50
2024/03/30 02:40:51;;;;;;;;;0.00;0.00;;;;;;;;5100788;27;45264;-52
2024/03/30 02:43:17;;;;;;;;;0.33;0.33;;;;;;;;5100946;27;45575;-51
2024/03/30 02:45:42;;;;;;;;;1.33;0.33;;;;;;;;5101258;27;45459;-51
2024/03/30 02:48:07;;;;;;;;;1.33;1.33;;;;;;;;5101394;27;45402;-48
2024/03/30 02:50:32;;;;;;;;;0.00;0.00;;;;;;;;5101650;27;45245;-49
2024/03/30 02:52:57;;;;;;;;;3.00;1.00;;;;;;;;5101690;27;45352;-51
2024/03/30 02:55:23;;;;;;;;;1.67;1.00;;;;;;;;5100839;27;45460;-53
2024/03/30 02:57:48;;;;;;;;;0.00;0.00;;;;;;;;5083095;27;45393;-52
2024/03/30 03:00:13;;;;;;;;;0.00;0.00;;;;;;;;5087117;27;45495;-50
2024/03/30 03:02:38;;;;;;;;;1.67;1.00;;;;;;;;5091781;27;45374;-49
2024/03/30 03:05:03;;;;;;;;;2.67;1.67;;;;;;;;5089000;27;45323;-49
2024/03/30 03:07:29;;;;;;;;;1.00;1.00;;;;;;;;5092739;27;45224;-50
2024/03/30 03:09:54;;;;;;;;;0.00;0.00;;;;;;;;5085427;27;45248;-51
2024/03/30 03:12:19;;;;;;;;;1.00;0.00;;;;;;;;5089830;27;45476;-48
2024/03/30 03:14:44;;;;;;;;;0.33;0.00;;;;;;;;5096925;27;45583;-48
2024/03/30 03:17:09;;;;;;;;;0.00;0.00;;;;;;;;5082932;27;45530;-49
2024/03/30 03:19:34;;;;;;;;;0.00;0.00;;;;;;;;5086681;27;45331;-48
2024/03/30 03:22:00;;;;;;;;;0.33;0.33;;;;;;;;5097689;27;45418;-51
2024/03/30 03:24:25;;;;;;;;;0.00;0.00;;;;;;;;5089411;27;46356;-49
2024/03/30 03:26:50;;;;;;;;;0.00;0.00;;;;;;;;5093561;27;45374;-50
2024/03/30 03:29:15;;;;;;;;;0.00;0.00;;;;;;;;5097290;27;45338;-48
2024/03/30 03:31:40;;;;;;;;;0.00;0.00;;;;;;;;5093897;27;45247;-52
2024/03/30 03:34:05;;;;;;;;;0.00;0.00;;;;;;;;5096758;27;46539;-49
2024/03/30 03:36:31;;;;;;;;;0.00;0.00;;;;;;;;5065258;28;45662;-52
2024/03/30 03:38:56;;;;;;;;;0.00;0.00;;;;;;;;5096742;27;45464;-51
2024/03/30 03:41:21;;;;;;;;;0.00;0.00;;;;;;;;5089249;27;45830;-52
2024/03/30 03:43:46;;;;;;;;;0.00;0.00;;;;;;;;5098245;27;46161;-52
2024/03/30 03:46:11;;;;;;;;;0.00;0.00;;;;;;;;5094073;27;45769;-51
2024/03/30 03:48:36;;;;;;;;;1.00;1.00;;;;;;;;5094631;27;45568;-52
2024/03/30 03:51:02;;;;;;;;;1.67;0.00;;;;;;;;5088140;27;45370;-48
2024/03/30 03:53:27;;;;;;;;;1.00;1.00;;;;;;;;5088804;27;45675;-49
2024/03/30 03:55:52;;;;;;;;;0.00;0.00;;;;;;;;5100286;27;45422;-48
2024/03/30 03:58:17;;;;;;;;;0.00;0.00;;;;;;;;5096370;27;45279;-49
2024/03/30 04:00:42;;;;;;;;;0.00;0.00;;;;;;;;5093844;27;45404;-49
2024/03/30 04:03:09;;;;;;;;;0.00;0.00;;;;;;;;5081589;27;45642;-52
2024/03/30 04:05:34;;;;;;;;;0.00;0.00;;;;;;;;5088448;27;45380;-49
2024/03/30 04:07:59;;;;;;;;;0.33;0.00;;;;;;;;5088243;27;45500;-51
2024/03/30 04:10:24;;;;;;;;;0.00;0.00;;;;;;;;5095721;27;45403;-51
2024/03/30 04:12:50;;;;;;;;;0.00;0.00;;;;;;;;5098081;27;46544;-49
2024/03/30 04:15:16;;;;;;;;;0.00;0.00;;;;;;;;5093665;27;45369;-49
2024/03/30 04:17:41;;;;;;;;;0.00;0.00;;;;;;;;5093727;27;45521;-52
2024/03/30 04:20:07;;;;;;;;;1.00;1.00;;;;;;;;5082201;27;45627;-49
2024/03/30 04:22:32;;;;;;;;;1.00;1.00;;;;;;;;5090037;27;46349;-50
2024/03/30 04:24:58;;;;;;;;;0.00;0.00;;;;;;;;5094348;27;45525;-49
2024/03/30 04:27:23;;;;;;;;;1.67;0.00;;;;;;;;5093515;27;45362;-49
2024/03/30 04:29:48;;;;;;;;;1.67;0.00;;;;;;;;5092830;27;45222;-50
2024/03/30 04:32:13;;;;;;;;;0.00;0.00;;;;;;;;5087600;27;46475;-50
2024/03/30 04:34:40;;;;;;;;;2.00;1.00;;;;;;;;5094359;27;45474;-52
2024/03/30 04:37:05;;;;;;;;;1.00;1.00;;;;;;;;5081284;27;45486;-50
2024/03/30 04:39:30;;;;;;;;;2.00;1.00;;;;;;;;5082547;27;45370;-49
2024/03/30 04:41:57;;;;;;;;;0.67;0.67;;;;;;;;5093091;27;46056;-49
2024/03/30 04:44:22;;;;;;;;;2.33;1.00;;;;;;;;5094943;27;45284;-48
2024/03/30 04:46:48;;;;;;;;;0.00;0.00;;;;;;;;5062647;28;45409;-51
2024/03/30 04:49:13;;;;;;;;;4.33;0.00;;;;;;;;5097371;27;45618;-50
2024/03/30 04:51:38;;;;;;;;;0.67;0.00;;;;;;;;5098278;27;45394;-49
2024/03/30 04:54:03;;;;;;;;;0.33;0.00;;;;;;;;5090064;27;45406;-51
2024/03/30 04:56:28;;;;;;;;;0.00;0.00;;;;;;;;5098295;27;45388;-52
2024/03/30 04:58:53;;;;;;;;;1.33;1.33;;;;;;;;5091343;27;45367;-50
2024/03/30 05:01:19;;;;;;;;;1.33;1.33;;;;;;;;5097611;27;46306;-50
2024/03/30 05:03:44;;;;;;;;;2.00;2.00;;;;;;;;5091868;27;45298;-51
2024/03/30 05:06:09;;;;;;;;;1.00;1.00;;;;;;;;5097645;27;45365;-50
2024/03/30 05:08:34;;;;;;;;;5.67;5.67;;;;;;;;5103566;27;45301;-51
2024/03/30 05:11:00;;;;;;;;;3.00;2.00;;;;;;;;5094753;27;46293;-50
2024/03/30 05:13:25;;;;;;;;;3.00;3.00;;;;;;;;5103598;27;45330;-51
2024/03/30 05:15:50;;;;;;;;;3.00;3.00;;;;;;;;5097842;27;45543;-51
2024/03/30 05:18:16;;;;;;;;;3.00;2.33;;;;;;;;5095032;27;45196;-50
2024/03/30 05:20:49;;;;;;;;;2.00;2.00;;;;;;;;5078960;28;46468;-51
2024/03/30 05:23:14;;;;;;;;;2.00;2.00;;;;;;;;5099184;27;45334;-48
2024/03/30 05:25:40;;;;;;;;;4.00;3.00;;;;;;;;5098839;27;45488;-50
2024/03/30 05:28:05;;;;;;;;;3.33;3.00;;;;;;;;5094140;27;45437;-48
2024/03/30 05:30:31;;;;;;;;;3.00;3.00;;;;;;;;5105840;27;45364;-52
2024/03/30 05:32:56;;;;;;;;;2.00;2.00;;;;;;;;5073100;28;45256;-49
2024/03/30 05:35:21;;;;;;;;;4.00;3.00;;;;;;;;5098103;27;45267;-48
2024/03/30 05:37:46;;;;;;;;;3.00;3.00;;;;;;;;5092260;27;45217;-48
2024/03/30 05:40:12;;;;;;;;;3.67;3.00;;;;;;;;5087484;27;46104;-49
2024/03/30 05:42:37;;;;;;;;;4.00;3.00;;;;;;;;5101834;27;45347;-49
2024/03/30 05:45:02;;;;;;;;;3.00;3.00;;;;;;;;5096379;27;45286;-47
2024/03/30 05:47:27;;;;;;;;;3.00;3.00;;;;;;;;5075541;27;45493;-48
2024/03/30 05:49:54;;;;;;;;;3.00;3.00;;;;;;;;5096141;27;45353;-50
2024/03/30 05:52:19;;;;;;;;;6.00;4.00;;;;;;;;5084798;27;45456;-49
2024/03/30 05:54:45;;;;;;;;;5.00;3.67;;;;;;;;5096317;27;45514;-49
2024/03/30 05:57:11;;;;;;;;;4.00;3.00;;;;;;;;5091869;27;45335;-49
2024/03/30 05:59:36;;;;;;;;;3.00;3.00;;;;;;;;5099507;27;46255;-48
2024/03/30 06:02:01;;;;;;;;;6.00;5.00;;;;;;;;5075855;27;45473;-50
2024/03/30 06:04:26;;;;;;;;;6.33;4.67;;;;;;;;5088407;27;45453;-51
2024/03/30 06:06:52;;;;;;;;;5.00;4.67;;;;;;;;5077691;27;45389;-51
2024/03/30 06:09:17;;;;;;;;;4.00;4.00;;;;;;;;5083004;27;45350;-50
2024/03/30 06:11:42;;;;;;;;;4.00;4.00;;;;;;;;5093444;27;45453;-49
2024/03/30 06:14:07;;;;;;;;;3.00;3.00;;;;;;;;5091863;27;45462;-51
2024/03/30 06:16:32;;;;;;;;;2.00;2.00;;;;;;;;5092172;27;45268;-52
2024/03/30 06:18:58;;;;;;;;;1.33;1.00;;;;;;;;5094066;27;46262;-50
2024/03/30 06:21:23;;;;;;;;;1.00;1.00;;;;;;;;5088866;27;46467;-49
2024/03/30 06:23:48;;;;;;;;;1.00;1.00;;;;;;;;5100914;27;45589;-51
2024/03/30 06:26:13;;;;;;;;;1.00;1.00;;;;;;;;5089628;27;45714;-49
2024/03/30 06:28:38;;;;;;;;;1.00;1.00;;;;;;;;5091969;27;45745;-48
2024/03/30 06:31:03;;;;;;;;;1.33;1.00;;;;;;;;5090511;27;45321;-50
2024/03/30 06:33:29;;;;;;;;;0.67;0.00;;;;;;;;5092731;27;45476;-51
2024/03/30 06:35:54;;;;;;;;;1.00;0.00;;;;;;;;5089925;27;45395;-51
2024/03/30 06:38:19;;;;;;;;;0.00;0.00;;;;;;;;5099972;27;45343;-49
2024/03/30 06:43:42;;;;;;;;;1.00;1.00;;;;;;;;5060976;27;45328;-48
2024/03/30 06:46:07;;;;;;;;;0.67;0.67;;;;;;;;5096217;27;45498;-48
2024/03/30 06:48:33;;;;;;;;;0.00;0.00;;;;;;;;5101281;27;46233;-48
2024/03/30 06:50:58;;;;;;;;;0.00;0.00;;;;;;;;5089374;27;45448;-47
2024/03/30 06:53:23;;;;;;;;;0.00;0.00;;;;;;;;5089145;27;45430;-47
2024/03/30 06:55:48;;;;;;;;;0.33;0.33;;;;;;;;5089989;27;45150;-47
2024/03/30 06:58:14;;;;;;;;;0.67;0.67;;;;;;;;5089402;27;45310;-50
2024/03/30 07:00:39;;;;;;;;;1.00;1.00;;;;;;;;5098670;27;45564;-50
2024/03/30 07:03:04;;;;;;;;;1.00;0.67;;;;;;;;5092635;27;45615;-50
2024/03/30 07:05:30;;;;;;;;;2.00;1.00;;;;;;;;5089726;27;45894;-49
2024/03/30 07:07:55;;;;;;;;;1.00;1.00;;;;;;;;5089734;27;46215;-51
2024/03/30 07:10:20;;;;;;;;;1.00;1.00;;;;;;;;5096476;27;45493;-51
2024/03/30 07:12:47;;;;;;;;;0.00;0.00;;;;;;;;5089335;27;45445;-51
2024/03/30 07:15:12;;;;;;;;;1.00;1.00;;;;;;;;5087553;27;45315;-48
2024/03/30 07:17:38;;;;;;;;;0.67;0.67;;;;;;;;5100470;27;45525;-51
2024/03/30 07:20:03;;;;;;;;;0.67;0.67;;;;;;;;5089594;27;45380;-48
2024/03/30 07:22:28;;;;;;;;;1.00;1.00;;;;;;;;5099461;27;45417;-52
2024/03/30 07:24:53;;;;;;;;;2.00;2.00;;;;;;;;5096254;27;45416;-50
2024/03/30 07:27:19;;;;;;;;;2.00;2.00;;;;;;;;5076096;27;47328;-50
2024/03/30 07:29:48;;;;;;;;;2.33;1.33;;;;;;;;5096438;27;45337;-51
2024/03/30 07:32:13;;;;;;;;;2.00;2.00;;;;;;;;5095430;27;45338;-52
2024/03/30 07:34:42;;;;;;;;;3.00;2.00;;;;;;;;5087992;27;45378;-49
2024/03/30 07:37:08;;;;;;;;;9.33;4.00;;;;;;;;5077151;27;48250;-51
2024/03/30 07:39:33;;;;;;;;;2.00;2.00;;;;;;;;5087713;27;45388;-49
2024/03/30 07:41:58;;;;;;;;;2.67;2.00;;;;;;;;5094605;27;45503;-52
2024/03/30 07:44:27;;;;;;;;;12.33;11.00;;;;;;;;5083729;27;45370;-52
2024/03/30 07:46:53;;;;;;;;;2.00;2.00;;;;;;;;5082065;27;46066;-52
2024/03/30 07:49:18;;;;;;;;;2.67;2.00;;;;;;;;5095068;27;45428;-48
2024/03/30 07:51:43;;;;;;;;;2.67;2.00;;;;;;;;5093278;27;45386;-52
2024/03/30 07:54:08;;;;;;;;;5.00;5.00;;;;;;;;5088007;27;45707;-49
2024/03/30 07:56:33;;;;;;;;;6.00;3.33;;;;;;;;5089421;27;46684;-47
2024/03/30 07:59:01;;;;;;;;;2.00;2.00;;;;;;;;5086888;27;45136;-50
2024/03/30 08:01:27;;;;;;;;;1.00;1.00;;;;;;;;5090252;27;45349;-52
2024/03/30 08:03:52;;;;;;;;;0.00;0.00;;;;;;;;5088301;27;45333;-49
2024/03/30 08:06:17;;;;;;;;;0.00;0.00;;;;;;;;5088463;27;46107;-50
2024/03/30 08:08:42;;;;;;;;;0.00;0.00;;;;;;;;5095944;27;45336;-51
2024/03/30 08:11:08;;;;;;;;;0.00;0.00;;;;;;;;5092722;27;45740;-50
2024/03/30 08:13:33;;;;;;;;;0.00;0.00;;;;;;;;5088374;27;45423;-49
2024/03/30 08:15:58;;;;;;;;;2.00;0.00;;;;;;;;5089625;27;45366;-49
2024/03/30 08:18:23;;;;;;;;;0.00;0.00;;;;;;;;5084734;27;45358;-49
2024/03/30 08:20:49;;;;;;;;;0.00;0.00;;;;;;;;5092597;27;45254;-48
2024/03/30 08:23:14;;;;;;;;;0.00;0.00;;;;;;;;5094021;27;45429;-49
2024/03/30 08:25:39;;;;;;;;;0.00;0.00;;;;;;;;5082803;27;46294;-49
2024/03/30 08:28:04;;;;;;;;;0.00;0.00;;;;;;;;5087983;27;45367;-50
2024/03/30 08:30:30;;;;;;;;;0.00;0.00;;;;;;;;5090430;27;45293;-49
2024/03/30 08:32:55;;;;;;;;;1.00;1.00;;;;;;;;5096184;27;45326;-51
2024/03/30 08:35:20;;;;;;;;;0.00;0.00;;;;;;;;5081797;27;45589;-50
2024/03/30 08:37:45;;;;;;;;;0.00;0.00;;;;;;;;5095843;27;45216;-51
2024/03/30 08:40:11;;;;;;;;;1.00;1.00;;;;;;;;5091744;27;45545;-51
2024/03/30 08:42:36;;;;;;;;;1.00;1.00;;;;;;;;5097980;27;45733;-52
2024/03/30 08:45:01;;;;;;;;;2.00;0.33;;;;;;;;5089300;27;45389;-50
2024/03/30 08:47:27;;;;;;;;;0.00;0.00;;;;;;;;5089887;27;45922;-50
2024/03/30 08:49:52;;;;;;;;;1.67;0.00;;;;;;;;5094948;27;45389;-47
2024/03/30 08:52:17;;;;;;;;;1.00;1.00;;;;;;;;5095954;27;45355;-51
2024/03/30 08:54:42;;;;;;;;;0.00;0.00;;;;;;;;5098334;27;45400;-50
2024/03/30 08:57:07;;;;;;;;;0.00;0.00;;;;;;;;5093953;27;45502;-49
2024/03/30 08:59:33;;;;;;;;;0.00;0.00;;;;;;;;5091130;27;45404;-48
2024/03/30 09:01:58;;;;;;;;;1.00;1.00;;;;;;;;5096724;27;45262;-49
2024/03/30 09:04:23;;;;;;;;;2.00;2.00;;;;;;;;5091515;27;46503;-48
2024/03/30 09:06:48;;;;;;;;;0.33;0.00;;;;;;;;5079874;27;45406;-50
2024/03/30 09:09:13;;;;;;;;;0.00;0.00;;;;;;;;5098465;27;45246;-50
2024/03/30 09:11:39;;;;;;;;;0.00;0.00;;;;;;;;5094729;27;45609;-48
2024/03/30 09:14:05;;;;;;;;;0.00;0.00;;;;;;;;5094729;27;46218;-49
2024/03/30 09:16:30;;;;;;;;;1.00;0.67;;;;;;;;5098256;27;45298;-50
2024/03/30 09:18:55;;;;;;;;;0.33;0.33;;;;;;;;5097207;27;45735;-51
2024/03/30 09:21:20;;;;;;;;;0.00;0.00;;;;;;;;5073113;27;45444;-50
2024/03/30 09:23:46;;;;;;;;;0.00;0.00;;;;;;;;5097547;27;45576;-47
2024/03/30 09:26:11;;;;;;;;;0.67;0.00;;;;;;;;5062082;27;45405;-46
2024/03/30 09:28:36;;;;;;;;;1.33;1.33;;;;;;;;5098712;27;45406;-47
2024/03/30 09:31:02;;;;;;;;;3.00;1.00;;;;;;;;5091425;27;45358;-47
2024/03/30 09:33:27;;;;;;;;;0.67;0.67;;;;;;;;5098654;27;46566;-51
2024/03/30 09:35:54;;;;;;;;;1.00;1.00;;;;;;;;5097732;27;46062;-49
2024/03/30 09:38:19;;;;;;;;;2.00;0.00;;;;;;;;5100029;27;45534;-49
2024/03/30 09:40:51;;;;;;;;;1.00;1.00;;;;;;;;5100035;27;45425;-52
2024/03/30 09:43:17;;;;;;;;;1.00;1.00;;;;;;;;5100975;27;46358;-47
2024/03/30 09:45:43;;;;;;;;;2.00;1.00;;;;;;;;5101546;27;45380;-50
2024/03/30 09:48:09;;;;;;;;;3.00;3.00;;;;;;;;5094035;27;45369;-50
2024/03/30 09:50:34;;;;;;;;;2.00;0.33;;;;;;;;5090461;27;45640;-53
2024/03/30 09:53:00;;;;;;;;;1.00;1.00;;;;;;;;5100511;27;45965;-49
2024/03/30 09:55:26;;;;;;;;;2.33;1.00;;;;;;;;5096035;27;45458;-52
2024/03/30 09:57:52;;;;;;;;;0.67;0.67;;;;;;;;5089495;27;45462;-52
2024/03/30 10:00:18;;;;;;;;;1.00;1.00;;;;;;;;5100806;27;45322;-53
2024/03/30 10:02:44;;;;;;;;;0.33;0.33;;;;;;;;5098015;27;46092;-52
2024/03/30 10:05:11;;;;;;;;;0.00;0.00;;;;;;;;5093324;27;45717;-52
2024/03/30 10:07:38;;;;;;;;;3.00;3.00;;;;;;;;5099422;27;45391;-53
2024/03/30 10:10:10;;;;;;;;;2.00;1.67;;;;;;;;5097997;27;45477;-51
2024/03/30 10:12:37;;;;;;;;;0.00;0.00;;;;;;;;5096405;27;46295;-52
2024/03/30 10:15:07;;;;;;;;;1.00;1.00;;;;;;;;5100120;27;45306;-53
2024/03/30 10:17:32;;;;;;;;;3.00;3.00;;;;;;;;5095615;27;45243;-53
2024/03/30 10:19:58;;;;;;;;;8.00;8.00;;;;;;;;5094952;27;45402;-52
2024/03/30 10:22:24;;;;;;;;;2.67;2.00;;;;;;;;5094989;27;46547;-44
2024/03/30 10:24:51;;;;;;;;;1.33;1.00;;;;;;;;5099424;27;45803;-60
2024/03/30 10:27:16;;;;;;;;;4.00;2.00;;;;;;;;5094468;27;45895;-60
2024/03/30 10:29:43;;;;;;;;;4.00;3.00;;;;;;;;5078392;27;45862;-58
2024/03/30 10:32:09;;;;;;;;;3.00;1.00;;;;;;;;5080753;27;45954;-61
2024/03/30 10:34:34;;;;;;;;;0.67;0.67;;;;;;;;5092929;27;45741;-55
2024/03/30 10:36:59;;;;;;;;;2.00;2.00;;;;;;;;5094942;27;45467;-66
2024/03/30 10:39:27;;;;;;;;;4.67;4.67;;;;;;;;5089726;27;45528;-65
2024/03/30 10:41:52;;;;;;;;;1.00;1.00;;;;;;;;5079938;27;48469;-60
2024/03/30 10:44:25;;;;;;;;;1.00;1.00;;;;;;;;5099380;27;45295;-58
2024/03/30 10:46:50;;;;;;;;;1.00;1.00;;;;;;;;5097770;27;45832;-58
2024/03/30 10:49:16;;;;;;;;;2.00;2.00;;;;;;;;5094874;27;45232;-56
2024/03/30 10:51:41;;;;;;;;;2.00;1.67;;;;;;;;5099761;27;46784;-56
2024/03/30 10:54:06;;;;;;;;;3.33;2.00;;;;;;;;5100368;27;45328;-57
2024/03/30 10:56:31;;;;;;;;;2.00;2.00;;;;;;;;5098945;27;45617;-58
2024/03/30 10:59:00;;;;;;;;;1.00;1.00;;;;;;;;5081154;27;45504;-59
2024/03/30 11:01:26;;;;;;;;;3.00;2.00;;;;;;;;5080420;27;48107;-63
2024/03/30 11:03:53;;;;;;;;;1.67;1.67;;;;;;;;5078938;27;45568;-59
2024/03/30 11:06:18;;;;;;;;;2.00;2.00;;;;;;;;5096716;27;45469;-58
2024/03/30 11:08:43;;;;;;;;;2.33;2.00;;;;;;;;5098190;27;45303;-61
2024/03/30 11:11:09;;;;;;;;;5.00;5.00;;;;;;;;5076336;27;47221;-59
2024/03/30 11:13:34;;;;;;;;;5.67;5.00;;;;;;;;5093279;27;45633;-62
2024/03/30 11:16:02;;;;;;;;;6.67;4.33;;;;;;;;5079288;27;45408;-61
2024/03/30 11:18:51;;;;;;;;;1.67;1.67;;;;;;;;5082870;27;45471;-60
2024/03/30 11:21:25;;;;;;;;;1.33;1.33;;;;;;;;5070899;27;46996;-58
2024/03/30 11:23:56;;;;;;;;;2.67;2.67;;;;;;;;5098325;27;45587;-65
2024/03/30 11:26:22;;;;;;;;;3.33;2.00;;;;;;;;5090103;27;45488;-62
2024/03/30 11:28:56;;;;;;;;;4.00;4.00;;;;;;;;5091872;27;45817;-62
2024/03/30 11:31:26;;;;;;;;;2.00;2.00;;;;;;;;5099291;27;46483;-62
2024/03/30 11:34:04;;;;;;;;;5.33;1.00;;;;;;;;5096916;27;45773;-62
2024/03/30 11:36:44;;;;;;;;;8.67;6.00;;;;;;;;5096173;27;45461;-62
2024/03/30 11:39:13;;;;;;;;;7.00;6.00;;;;;;;;5097048;27;45477;-62
2024/03/30 11:41:41;;;;;;;;;3.67;3.67;;;;;;;;5075524;27;47999;-62
2024/03/30 11:44:10;;;;;;;;;1.00;1.00;;;;;;;;5092131;27;45243;-62
2024/03/30 11:46:39;;;;;;;;;3.00;2.00;;;;;;;;5095897;27;45584;-62
2024/03/30 11:49:05;;;;;;;;;1.00;1.00;;;;;;;;5085429;27;45463;-62
2024/03/30 11:51:31;;;;;;;;;2.33;1.00;;;;;;;;5088784;27;46125;-67
2024/03/30 11:53:56;;;;;;;;;1.00;1.00;;;;;;;;5068762;27;45289;-63
2024/03/30 11:56:22;;;;;;;;;2.33;1.00;;;;;;;;5090102;27;45272;-63
2024/03/30 11:58:47;;;;;;;;;2.00;2.00;;;;;;;;5091251;27;45249;-63
2024/03/30 12:01:13;;;;;;;;;0.67;0.67;;;;;;;;5093082;27;45648;-62
2024/03/30 12:03:39;;;;;;;;;5.00;2.00;;;;;;;;5080660;27;45381;-54
2024/03/30 12:06:04;;;;;;;;;2.00;2.00;;;;;;;;5105301;27;45315;-48
2024/03/30 12:08:30;;;;;;;;;3.33;1.67;;;;;;;;5080557;27;45236;-52
2024/03/30 12:10:56;;;;;;;;;1.00;1.00;;;;;;;;5087943;27;45495;-53
2024/03/30 12:13:22;;;;;;;;;2.00;2.00;;;;;;;;5092336;27;45371;-54
2024/03/30 12:15:47;;;;;;;;;2.00;2.00;;;;;;;;5094816;27;45324;-51
2024/03/30 12:18:13;;;;;;;;;1.00;1.00;;;;;;;;5088892;27;45453;-50
2024/03/30 12:20:39;;;;;;;;;2.33;1.33;;;;;;;;5082707;27;47179;-52
2024/03/30 12:23:05;;;;;;;;;0.00;0.00;;;;;;;;5097749;27;45488;-54
2024/03/30 12:25:31;;;;;;;;;0.67;0.67;;;;;;;;5098933;27;45531;-54
2024/03/30 12:27:57;;;;;;;;;2.00;2.00;;;;;;;;5109493;27;45445;-52
2024/03/30 12:30:22;;;;;;;;;0.67;0.67;;;;;;;;5080744;27;47108;-52
2024/03/30 12:32:47;;;;;;;;;1.33;1.33;;;;;;;;5079447;27;45252;-52
2024/03/30 12:35:13;;;;;;;;;0.00;0.00;;;;;;;;5091774;27;45418;-52
2024/03/30 12:37:40;;;;;;;;;0.67;0.67;;;;;;;;5076804;27;45354;-52
2024/03/30 12:40:05;;;;;;;;;2.00;1.67;;;;;;;;5106004;27;45342;-52
2024/03/30 12:42:30;;;;;;;;;2.00;0.67;;;;;;;;5105600;27;45595;-52
2024/03/30 12:44:59;;;;;;;;;2.00;0.00;;;;;;;;5098213;27;45424;-54
2024/03/30 12:47:24;;;;;;;;;1.33;1.33;;;;;;;;5107915;27;45657;-51
2024/03/30 12:49:50;;;;;;;;;1.00;1.00;;;;;;;;5091027;27;46451;-53
2024/03/30 12:52:15;;;;;;;;;0.25;0.25;;;;;;;;5099218;27;45298;-50
2024/03/30 12:54:40;;;;;;;;;5.33;1.00;;;;;;;;5092226;27;45421;-52
2024/03/30 12:57:05;;;;;;;;;1.50;1.00;;;;;;;;5098164;27;45405;-50
2024/03/30 12:59:31;;;;;;;;;1.00;1.00;;;;;;;;5093919;27;46980;-52
2024/03/30 13:01:56;;;;;;;;;2.00;1.00;;;;;;;;5092595;27;45265;-52
2024/03/30 13:04:21;;;;;;;;;0.67;0.00;;;;;;;;5107391;27;45473;-56
2024/03/30 13:06:47;;;;;;;;;0.67;0.67;;;;;;;;5101110;27;45248;-54
2024/03/30 13:09:24;;;;;;;;;1.67;0.67;;;;;;;;5098099;27;45308;-51
2024/03/30 13:11:50;;;;;;;;;1.00;1.00;;;;;;;;5100809;27;45495;-50
2024/03/30 13:14:15;;;;;;;;;1.00;1.00;;;;;;;;5101881;27;45687;-56
2024/03/30 13:16:40;;;;;;;;;1.33;1.33;;;;;;;;5099805;27;45355;-51
2024/03/30 13:19:10;;;;;;;;;1.00;1.00;;;;;;;;5093175;27;46150;-52
2024/03/30 13:21:37;;;;;;;;;3.00;2.00;;;;;;;;5102328;27;45462;-50
2024/03/30 13:24:03;;;;;;;;;2.33;2.33;;;;;;;;5091626;27;45295;-51
2024/03/30 13:26:30;;;;;;;;;3.00;1.33;;;;;;;;5097517;27;45283;-49
2024/03/30 13:28:55;;;;;;;;;1.33;1.33;;;;;;;;5092959;27;46205;-51
2024/03/30 13:31:20;;;;;;;;;1.00;1.00;;;;;;;;5104519;27;45616;-48
2024/03/30 13:33:45;;;;;;;;;2.33;1.67;;;;;;;;5100029;27;46464;-51
2024/03/30 13:36:11;;;;;;;;;3.00;1.33;;;;;;;;5082274;27;45671;-52
2024/03/30 13:38:36;;;;;;;;;0.67;0.67;;;;;;;;5091844;27;46465;-52
2024/03/30 13:41:01;;;;;;;;;2.00;1.67;;;;;;;;5069936;27;45444;-51
2024/03/30 13:43:26;;;;;;;;;2.00;0.00;;;;;;;;5099950;27;45710;-52
2024/03/30 13:45:54;;;;;;;;;3.00;1.67;;;;;;;;5088529;27;45472;-51
2024/03/30 13:48:19;;;;;;;;;0.50;0.50;;;;;;;;5087036;27;47208;-53
2024/03/30 13:50:44;;;;;;;;;0.67;0.67;;;;;;;;5093439;27;45354;-52
2024/03/30 13:53:10;;;;;;;;;1.00;1.00;;;;;;;;5093580;27;45265;-52
2024/03/30 13:55:35;;;;;;;;;0.00;0.00;;;;;;;;5098592;27;45484;-49
2024/03/30 13:58:01;;;;;;;;;0.33;0.33;;;;;;;;5078233;27;48475;-50
2024/03/30 14:00:27;;;;;;;;;0.67;0.67;;;;;;;;5093068;27;45305;-52
2024/03/30 14:02:52;;;;;;;;;0.67;0.67;;;;;;;;5094331;27;45302;-52
2024/03/30 14:05:19;;;;;;;;;0.00;0.00;;;;;;;;5092294;27;45667;-51
2024/03/30 14:07:44;;;;;;;;;0.67;0.67;;;;;;;;5092262;27;46662;-49
2024/03/30 14:10:09;;;;;;;;;0.00;0.00;;;;;;;;5091012;27;45307;-52
2024/03/30 14:12:34;;;;;;;;;0.00;0.00;;;;;;;;5093227;27;45549;-52
2024/03/30 14:15:02;;;;;;;;;0.00;0.00;;;;;;;;5100797;27;45393;-52
2024/03/30 14:17:38;;;;;;;;;0.67;0.67;;;;;;;;5102077;27;46476;-51
2024/03/30 14:20:03;;;;;;;;;1.00;1.00;;;;;;;;5100996;27;45721;-51
2024/03/30 14:22:29;;;;;;;;;3.00;1.00;;;;;;;;5100193;27;45287;-51
2024/03/30 14:24:54;;;;;;;;;1.00;1.00;;;;;;;;5078508;28;45535;-53
2024/03/30 14:27:19;;;;;;;;;1.00;1.00;;;;;;;;5092776;27;45655;-53
2024/03/30 14:29:45;;;;;;;;;1.00;1.00;;;;;;;;5101366;27;45466;-52
2024/03/30 14:32:10;;;;;;;;;1.00;1.00;;;;;;;;5101457;27;45440;-51
2024/03/30 14:34:35;;;;;;;;;1.00;1.00;;;;;;;;5101536;27;45440;-49
2024/03/30 14:37:02;;;;;;;;;1.00;1.00;;;;;;;;5101005;27;45421;-53